Time;durP1;ratioP1;P1;durP2;ratioP2;P2;SDS_P1;SDS_P2;PMS_P1;PMS_P2;Temp;Humidity;BMP_temperature;BMP_pressure;BME280_temperature;BME280_humidity;BME280_pressure;Samples;Min_cycle;Max_cycle;Signal;HPM_P1;HPM_P2
2021/07/28 00:00:06;;;;;;;22.20;14.73;;;;;;;19.73;69.45;101074.96;1757853;81;21362;-69
2021/07/28 00:02:35;;;;;;;21.93;15.53;;;;;;;19.72;69.49;101074.63;1757599;80;20999;-69
2021/07/28 00:05:02;;;;;;;25.48;14.78;;;;;;;19.73;69.46;101070.97;1757890;81;21375;-70
2021/07/28 00:07:28;;;;;;;27.15;15.68;;;;;;;19.74;69.13;101070.47;1758277;81;21120;-70
2021/07/28 00:09:55;;;;;;;23.40;14.28;;;;;;;19.76;68.96;101069.34;1757681;81;21018;-69
2021/07/28 00:12:22;;;;;;;20.65;14.05;;;;;;;19.79;68.80;101066.92;1758413;81;20892;-68
2021/07/28 00:14:51;;;;;;;17.05;12.80;;;;;;;19.82;68.32;101067.45;1757703;81;21335;-70
2021/07/28 00:17:18;;;;;;;21.52;12.63;;;;;;;19.84;67.75;101061.50;1757789;80;20936;-69
2021/07/28 00:19:53;;;;;;;19.00;12.10;;;;;;;19.85;66.53;101055.69;1757867;81;21512;-69
2021/07/28 00:25:06;;;;;;;24.07;11.48;;;;;;;19.87;65.96;101052.39;1757850;81;20972;-68
2021/07/28 00:27:37;;;;;;;16.93;11.05;;;;;;;19.85;65.31;101046.37;1758020;81;21427;-69
2021/07/28 00:30:11;;;;;;;14.50;10.08;;;;;;;19.85;65.09;101043.70;1758015;81;21347;-69
2021/07/28 00:32:38;;;;;;;17.85;10.78;;;;;;;19.83;64.87;101041.67;1758190;81;21135;-69
2021/07/28 00:35:06;;;;;;;17.05;10.10;;;;;;;19.83;65.23;101034.55;1758006;81;21011;-69
2021/07/28 00:37:33;;;;;;;19.48;11.50;;;;;;;19.86;65.27;101034.75;1757981;81;20912;-69
2021/07/28 00:40:03;;;;;;;15.48;10.48;;;;;;;19.92;65.49;101038.19;1757889;81;20888;-68
2021/07/28 00:42:30;;;;;;;14.75;9.53;;;;;;;19.98;65.59;101034.09;1758345;81;20912;-68
2021/07/28 00:44:57;;;;;;;15.70;10.08;;;;;;;20.04;65.91;101042.34;1749869;81;21470;-68
2021/07/28 00:47:24;;;;;;;19.85;10.88;;;;;;;20.12;65.88;101038.13;1744539;82;20921;-68
2021/07/28 00:49:50;;;;;;;17.50;9.45;;;;;;;20.17;66.34;101040.72;1745031;82;20901;-68
2021/07/28 00:52:17;;;;;;;20.75;9.95;;;;;;;20.23;66.82;101040.15;1744782;82;20963;-69
2021/07/28 00:54:44;;;;;;;20.00;9.83;;;;;;;20.32;67.21;101037.11;1744590;82;20937;-69
2021/07/28 00:57:11;;;;;;;17.17;11.28;;;;;;;20.40;67.34;101037.20;1744688;82;21515;-68
2021/07/28 00:59:38;;;;;;;19.12;10.03;;;;;;;20.48;67.45;101028.49;1744912;82;21023;-69
2021/07/28 01:02:05;;;;;;;23.67;10.88;;;;;;;20.54;67.34;101032.38;1744743;82;20873;-67
2021/07/28 01:04:32;;;;;;;32.13;12.78;;;;;;;20.59;67.60;101030.16;1744821;80;21343;-68
2021/07/28 01:06:59;;;;;;;18.48;10.00;;;;;;;20.63;67.73;101039.52;1744658;80;20941;-69
2021/07/28 01:09:28;;;;;;;20.08;11.53;;;;;;;20.66;67.91;101038.74;1744702;81;21614;-69
2021/07/28 01:11:57;;;;;;;18.05;10.68;;;;;;;20.65;68.05;101034.88;1744560;82;20936;-69
2021/07/28 01:14:25;;;;;;;19.75;10.93;;;;;;;20.65;68.06;101030.41;1744956;82;20968;-69
2021/07/28 01:16:53;;;;;;;21.80;10.78;;;;;;;20.66;68.44;101032.58;1744520;82;20936;-68
2021/07/28 01:19:20;;;;;;;15.85;10.72;;;;;;;20.70;68.47;101040.63;1744864;81;21514;-68
2021/07/28 01:21:48;;;;;;;21.75;11.83;;;;;;;20.74;68.46;101042.48;1744572;82;21136;-68
2021/07/28 01:24:15;;;;;;;18.98;11.43;;;;;;;20.76;68.65;101042.68;1744693;82;20952;-70
2021/07/28 01:26:43;;;;;;;25.00;12.47;;;;;;;20.78;68.63;101046.05;1744625;81;20853;-70
2021/07/28 01:29:11;;;;;;;16.70;13.03;;;;;;;20.78;68.61;101050.04;1744794;82;20877;-69
2021/07/28 01:31:40;;;;;;;20.15;12.43;;;;;;;20.78;68.29;101042.05;1744689;82;20936;-69
2021/07/28 01:34:10;;;;;;;26.20;14.23;;;;;;;20.77;68.36;101044.38;1744913;82;22180;-70
2021/07/28 01:36:38;;;;;;;32.08;13.25;;;;;;;20.76;68.41;101047.18;1744493;80;20877;-69
2021/07/28 01:39:05;;;;;;;22.30;11.95;;;;;;;20.75;68.50;101046.84;1734376;82;21004;-70
2021/07/28 01:41:32;;;;;;;20.15;12.30;;;;;;;20.73;68.89;101054.98;1744600;82;20944;-69
2021/07/28 01:43:59;;;;;;;19.90;12.30;;;;;;;20.73;68.84;101049.66;1744840;82;20921;-70
2021/07/28 01:46:26;;;;;;;20.77;12.37;;;;;;;20.73;68.81;101051.48;1749959;81;21095;-69
2021/07/28 01:48:53;;;;;;;27.05;12.05;;;;;;;20.72;68.79;101047.13;1749879;80;21333;-69
2021/07/28 01:51:20;;;;;;;24.07;11.97;;;;;;;20.69;68.95;101047.77;1749892;82;20867;-68
2021/07/28 01:53:46;;;;;;;18.25;11.20;;;;;;;20.68;69.24;101046.09;1749830;82;21484;-70
2021/07/28 01:56:14;;;;;;;19.82;11.73;;;;;;;;;;1750237;82;20880;-70
2021/07/28 01:58:43;;;;;;;20.50;11.63;;;;;;;20.66;70.03;101054.73;1749848;82;21136;-70
2021/07/28 02:01:09;;;;;;;20.62;10.08;;;;;;;20.67;70.30;101055.06;1750215;82;20923;-70
2021/07/28 02:03:36;;;;;;;24.95;11.38;;;;;;;20.68;70.70;101055.92;1749965;80;20970;-70
2021/07/28 02:06:03;;;;;;;21.25;10.10;;;;;;;20.67;71.01;101060.39;1750236;81;20927;-69
2021/07/28 02:08:30;;;;;;;25.02;10.15;;;;;;;20.70;71.34;101061.95;1697087;82;20951;-68
2021/07/28 02:10:59;;;;;;;25.77;10.50;;;;;;;20.70;71.61;101060.13;1750199;82;21059;-69
2021/07/28 02:13:25;;;;;;;23.67;9.75;;;;;;;20.72;71.77;101055.13;1750028;82;20962;-69
2021/07/28 02:15:52;;;;;;;19.25;9.68;;;;;;;20.72;72.06;101046.66;1750168;80;21002;-70
2021/07/28 02:18:19;;;;;;;19.15;9.78;;;;;;;20.76;72.44;101048.02;1749870;80;20967;-69
2021/07/28 02:20:46;;;;;;;22.42;9.93;;;;;;;20.81;72.66;101055.56;1749799;80;20935;-71
2021/07/28 02:23:13;;;;;;;22.95;10.28;;;;;;;20.82;72.78;101054.09;1749723;80;21524;-68
2021/07/28 02:25:41;;;;;;;23.73;12.28;;;;;;;20.84;73.03;101053.45;1749811;82;21414;-69
2021/07/28 02:28:08;;;;;;;22.45;10.43;;;;;;;20.86;73.23;101053.31;1749869;82;20924;-70
2021/07/28 02:30:34;;;;;;;28.40;11.48;;;;;;;20.86;73.46;101050.14;1750117;82;20959;-68
2021/07/28 02:33:03;;;;;;;22.87;10.40;;;;;;;20.89;73.63;101050.34;1749870;82;21472;-69
2021/07/28 02:35:30;;;;;;;27.02;10.95;;;;;;;20.89;74.00;101049.84;1749850;80;22003;-70
2021/07/28 02:37:57;;;;;;;19.42;10.10;;;;;;;20.89;74.43;101051.17;1749717;82;20963;-69
2021/07/28 02:40:24;;;;;;;20.82;9.03;;;;;;;20.89;74.83;101054.34;1750047;80;20833;-69
2021/07/28 02:42:51;;;;;;;20.62;9.95;;;;;;;20.88;75.21;101057.50;1749817;82;20887;-69
2021/07/28 02:45:17;;;;;;;19.85;10.35;;;;;;;20.88;75.62;101055.34;1753124;80;20979;-69
2021/07/28 02:47:46;;;;;;;23.18;9.73;;;;;;;20.88;75.96;101051.34;1757938;81;21125;-70
2021/07/28 02:50:13;;;;;;;23.65;10.18;;;;;;;20.87;76.35;101056.31;1757875;80;20908;-69
2021/07/28 02:52:40;;;;;;;24.18;10.30;;;;;;;20.87;76.72;101059.81;1757894;81;21016;-69
2021/07/28 02:55:10;;;;;;;24.60;9.68;;;;;;;20.88;77.02;101062.01;1757804;81;20955;-69
2021/07/28 02:57:37;;;;;;;21.52;10.75;;;;;;;20.88;77.31;101054.84;1758191;81;20967;-69
2021/07/28 03:00:06;;;;;;;20.68;10.35;;;;;;;20.89;77.61;101061.00;1757840;81;21153;-69
2021/07/28 03:02:34;;;;;;;22.20;10.28;;;;;;;20.91;77.85;101056.36;1758070;80;20880;-69
2021/07/28 03:05:02;;;;;;;20.23;10.32;;;;;;;20.93;78.00;101055.72;1757864;81;20931;-68
2021/07/28 03:07:29;;;;;;;26.42;10.65;;;;;;;20.95;78.07;101060.92;1757755;81;20896;-69
2021/07/28 03:09:56;;;;;;;21.00;12.88;;;;;;;20.96;78.29;101067.41;1757951;81;20884;-68
2021/07/28 03:12:23;;;;;;;17.15;10.63;;;;;;;20.98;78.39;101072.61;1757754;80;21140;-69
2021/07/28 03:14:50;;;;;;;31.48;11.65;;;;;;;20.98;78.44;101066.77;1757808;81;21381;-69
2021/07/28 03:17:17;;;;;;;24.92;10.58;;;;;;;21.01;78.52;101070.97;1757994;81;20904;-70
2021/07/28 03:19:44;;;;;;;18.95;10.18;;;;;;;21.02;78.56;101074.83;1757823;80;20924;-70
2021/07/28 03:22:11;;;;;;;25.12;10.25;;;;;;;21.03;78.68;101067.19;1757809;81;20912;-69
2021/07/28 03:24:37;;;;;;;19.40;10.08;;;;;;;21.06;78.76;101074.05;1757864;80;22150;-69
2021/07/28 03:27:05;;;;;;;24.27;9.78;;;;;;;21.08;78.91;101072.07;1757799;80;20908;-70
2021/07/28 03:29:32;;;;;;;25.75;11.08;;;;;;;21.10;78.99;101070.92;1757757;81;20936;-70
2021/07/28 03:31:59;;;;;;;20.88;9.93;;;;;;;21.13;79.10;101069.78;1757729;81;20932;-69
2021/07/28 03:34:26;;;;;;;25.10;10.93;;;;;;;21.17;79.18;101070.34;1757808;80;20943;-70
2021/07/28 03:36:53;;;;;;;29.32;12.82;;;;;;;21.20;79.20;101067.36;1757815;81;21135;-69
2021/07/28 03:39:20;;;;;;;21.48;12.05;;;;;;;21.23;79.21;101069.23;1757824;81;20920;-68
2021/07/28 03:41:47;;;;;;;21.82;9.98;;;;;;;21.26;79.28;101066.26;1757880;81;20928;-69
2021/07/28 03:44:14;;;;;;;17.95;10.58;;;;;;;21.30;79.29;101065.47;1721703;83;21347;-69
2021/07/28 03:46:41;;;;;;;19.23;8.73;;;;;;;21.36;79.28;101066.68;1700970;84;20901;-69
2021/07/28 03:49:09;;;;;;;15.50;9.60;;;;;;;21.41;79.26;101067.95;1708471;83;21153;-67
2021/07/28 03:51:36;;;;;;;19.20;9.65;;;;;;;21.47;79.24;101069.98;1708405;83;21435;-69
2021/07/28 03:54:03;;;;;;;27.70;9.40;;;;;;;21.52;79.15;101066.86;1708752;84;20901;-69
2021/07/28 03:56:30;;;;;;;17.55;9.53;;;;;;;21.61;79.19;101069.11;1708356;83;20933;-68
2021/07/28 03:58:57;;;;;;;23.15;10.30;;;;;;;21.69;79.16;101065.19;1708681;84;20996;-69
2021/07/28 04:01:24;;;;;;;16.60;9.75;;;;;;;21.77;79.02;101067.94;1708427;84;21565;-69
2021/07/28 04:03:51;;;;;;;20.68;8.85;;;;;;;21.87;78.80;101061.99;1708628;83;20956;-72
2021/07/28 04:06:18;;;;;;;18.27;9.25;;;;;;;21.98;78.70;101062.25;1708743;84;20945;-68
2021/07/28 04:08:45;;;;;;;19.87;8.78;;;;;;;22.10;78.48;101057.52;1708508;83;20996;-67
2021/07/28 04:11:12;;;;;;;17.67;9.35;;;;;;;22.22;78.14;101060.28;1708675;83;20941;-67
2021/07/28 04:13:39;;;;;;;18.45;8.48;;;;;;;22.36;77.91;101061.52;1708858;84;21954;-67
2021/07/28 04:16:06;;;;;;;18.65;8.20;;;;;;;22.49;77.58;101058.42;1708538;84;20905;-68
2021/07/28 04:18:33;;;;;;;19.65;7.72;;;;;;;22.63;77.30;101062.33;1708599;84;20936;-68
2021/07/28 04:21:00;;;;;;;13.88;7.62;;;;;;;22.77;76.83;101063.08;1708639;84;20980;-69
2021/07/28 04:23:27;;;;;;;20.17;8.30;;;;;;;22.93;76.46;101060.95;1708931;84;20993;-68
2021/07/28 04:25:54;;;;;;;19.92;8.23;;;;;;;23.12;76.16;101053.17;1708814;84;21923;-67
2021/07/28 04:28:21;;;;;;;16.00;7.40;;;;;;;23.47;75.49;101058.76;1708870;84;20969;-69
2021/07/28 04:30:48;;;;;;;15.38;8.83;;;;;;;23.94;74.29;101058.62;1708670;84;20968;-68
2021/07/28 04:33:14;;;;;;;12.50;7.40;;;;;;;24.48;72.61;101055.36;1708887;83;20912;-67
2021/07/28 04:35:41;;;;;;;17.30;7.72;;;;;;;25.01;70.71;101051.97;1708733;84;20977;-67
2021/07/28 04:38:08;;;;;;;14.10;7.15;;;;;;;25.52;69.11;101044.75;1708895;84;21086;-69
2021/07/28 04:40:35;;;;;;;14.95;8.10;;;;;;;26.04;67.16;101041.83;1708472;84;21425;-69
2021/07/28 04:43:02;;;;;;;14.98;7.22;;;;;;;26.52;65.66;101039.60;1708903;84;21019;-68
2021/07/28 04:45:29;;;;;;;16.57;8.43;;;;;;;27.00;64.28;101036.51;1706792;84;20925;-69
2021/07/28 04:47:55;;;;;;;15.93;7.95;;;;;;;27.44;62.72;101035.02;1701071;83;20941;-69
2021/07/28 04:50:23;;;;;;;20.05;7.37;;;;;;;27.88;61.22;101031.28;1701061;83;21147;-69
2021/07/28 04:52:49;;;;;;;19.98;7.55;;;;;;;28.31;60.04;101027.09;1701072;84;21455;-69
2021/07/28 04:55:16;;;;;;;15.68;7.60;;;;;;;28.73;59.03;101023.89;1701276;84;20953;-67
2021/07/28 04:57:43;;;;;;;18.73;8.98;;;;;;;29.13;57.94;101021.86;1701106;84;21138;-68
2021/07/28 05:00:11;;;;;;;19.87;7.37;;;;;;;29.49;56.96;101014.72;1701340;84;20984;-68
2021/07/28 05:02:38;;;;;;;32.00;8.45;;;;;;;29.88;55.86;101014.44;1701118;84;21808;-69
2021/07/28 05:05:06;;;;;;;23.98;10.10;;;;;;;30.26;54.95;101016.44;1701308;84;20992;-68
2021/07/28 05:07:33;;;;;;;21.37;8.38;;;;;;;30.60;54.12;101010.94;1701054;83;21344;-68
2021/07/28 05:10:00;;;;;;;22.60;8.38;;;;;;;30.92;53.23;101009.95;1700873;83;20902;-68
2021/07/28 05:12:27;;;;;;;17.15;6.65;;;;;;;31.25;52.43;101006.73;1700997;84;21117;-67
2021/07/28 05:14:55;;;;;;;15.45;6.55;;;;;;;31.55;51.53;101008.28;1701354;83;21139;-68
2021/07/28 05:17:23;;;;;;;13.48;6.58;;;;;;;31.79;50.87;101007.46;1700928;83;20885;-68
2021/07/28 05:19:51;;;;;;;14.50;6.30;;;;;;;32.07;50.25;101005.33;1700919;84;20968;-68
2021/07/28 05:22:18;;;;;;;13.43;5.83;;;;;;;32.29;49.32;101009.78;1700870;84;21670;-68
2021/07/28 05:24:45;;;;;;;20.45;8.20;;;;;;;32.50;48.77;101011.19;1700988;83;20941;-68
2021/07/28 05:27:11;;;;;;;23.50;7.25;;;;;;;32.72;48.35;101003.42;1701077;84;21135;-68
2021/07/28 05:29:38;;;;;;;22.48;6.37;;;;;;;32.92;47.85;100994.99;1701249;84;21002;-69
2021/07/28 05:32:06;;;;;;;12.88;6.35;;;;;;;33.10;47.28;100993.59;1701081;84;20902;-69
2021/07/28 05:34:33;;;;;;;10.50;6.50;;;;;;;33.28;46.84;100987.78;1701253;83;21507;-71
2021/07/28 05:37:00;;;;;;;18.65;6.70;;;;;;;33.50;46.39;100989.41;1701084;84;20941;-68
2021/07/28 05:39:27;;;;;;;19.25;6.78;;;;;;;33.68;45.81;100988.49;1700927;83;21140;-68
2021/07/28 05:41:56;;;;;;;10.43;6.55;;;;;;;33.85;45.46;100990.80;1701069;83;21028;-67
2021/07/28 05:44:23;;;;;;;31.35;7.20;;;;;;;34.03;45.14;100983.84;1701340;84;20893;-71
2021/07/28 05:46:50;;;;;;;15.20;6.80;;;;;;;34.20;44.49;100986.70;1700887;84;20949;-69
2021/07/28 05:49:16;;;;;;;11.55;6.60;;;;;;;34.39;43.97;100983.25;1701331;84;20980;-68
2021/07/28 05:51:43;;;;;;;53.35;8.63;;;;;;;34.56;43.71;100978.42;1700993;84;21196;-68
2021/07/28 05:54:10;;;;;;;21.15;6.80;;;;;;;34.75;43.30;100972.25;1700969;84;20937;-69
2021/07/28 05:56:37;;;;;;;23.55;9.75;;;;;;;34.95;43.06;100971.27;1701018;84;20926;-68
2021/07/28 05:59:04;;;;;;;30.52;8.13;;;;;;;35.16;42.73;100978.47;1701117;84;21555;-68
2021/07/28 06:01:31;;;;;;;19.00;8.03;;;;;;;35.30;42.17;100975.69;1700990;83;20949;-68
2021/07/28 06:04:02;;;;;;;17.35;7.53;;;;;;;35.43;41.75;100972.63;1700911;83;22410;-77
2021/07/28 06:06:31;;;;;;;13.25;7.90;;;;;;;35.56;41.36;100981.55;1701463;84;20972;-76
2021/07/28 06:08:58;;;;;;;16.40;7.67;;;;;;;35.68;41.17;100972.20;1700588;84;20985;-73
2021/07/28 06:11:25;;;;;;;12.65;6.95;;;;;;;35.87;40.84;100971.92;1701298;84;20873;-75
2021/07/28 06:13:52;;;;;;;11.18;6.67;;;;;;;36.07;40.42;100971.38;1701225;84;21407;-75
2021/07/28 06:16:20;;;;;;;14.05;7.30;;;;;;;36.22;39.82;100971.59;1700782;83;20897;-76
2021/07/28 06:18:47;;;;;;;15.13;6.90;;;;;;;36.35;39.53;100968.98;1700988;84;20909;-76
2021/07/28 06:21:14;;;;;;;14.53;7.33;;;;;;;36.48;39.10;100969.14;1701216;83;20955;-73
2021/07/28 06:23:42;;;;;;;13.25;6.85;;;;;;;36.56;38.64;100977.44;1700942;83;20921;-79
2021/07/28 06:26:09;;;;;;;11.70;6.47;;;;;;;36.64;38.55;100975.10;1701268;84;21479;-78
2021/07/28 06:28:36;;;;;;;17.92;8.40;;;;;;;36.81;38.32;100964.59;1700980;84;21175;-80
2021/07/28 06:31:03;;;;;;;13.98;8.58;;;;;;;37.01;37.90;100966.69;1701175;83;20982;-78
2021/07/28 06:33:30;;;;;;;14.43;9.48;;;;;;;37.15;37.46;100951.51;1701000;84;20909;-78
2021/07/28 06:35:58;;;;;;;23.25;7.37;;;;;;;37.31;37.19;100945.63;1700897;84;20964;-78
2021/07/28 06:38:25;;;;;;;14.53;6.87;;;;;;;37.47;37.28;100943.27;1700878;84;21019;-78
2021/07/28 06:40:53;;;;;;;16.60;6.90;;;;;;;37.64;36.55;100942.28;1701001;83;21578;-76
2021/07/28 06:43:20;;;;;;;12.55;6.42;;;;;;;37.83;35.94;100939.94;1700850;83;20945;-77
2021/07/28 06:45:47;;;;;;;18.55;8.23;;;;;;;37.95;35.76;100939.15;1701251;83;20953;-76
2021/07/28 06:48:14;;;;;;;12.45;5.87;;;;;;;38.06;35.24;100935.94;1708721;84;20952;-77
2021/07/28 06:50:42;;;;;;;14.15;6.08;;;;;;;38.18;34.68;100935.17;1708857;84;21314;-77
2021/07/28 06:53:09;;;;;;;13.03;6.40;;;;;;;38.28;34.47;100937.11;1708809;84;21279;-76
2021/07/28 06:55:36;;;;;;;14.05;6.72;;;;;;;38.38;33.79;100929.45;1708672;84;20956;-76
2021/07/28 06:58:03;;;;;;;15.72;6.50;;;;;;;38.42;33.61;100931.93;1708970;84;20905;-74
2021/07/28 07:00:32;;;;;;;18.02;7.05;;;;;;;38.49;34.03;100929.81;1708739;84;20964;-74
2021/07/28 07:02:59;;;;;;;12.37;6.85;;;;;;;38.64;34.22;100926.24;1709109;84;20901;-80
2021/07/28 07:05:26;;;;;;;12.70;5.95;;;;;;;38.76;34.27;100926.27;1708792;84;22128;-77
2021/07/28 07:07:56;;;;;;;14.95;6.58;;;;;;;38.91;34.03;100921.34;1680940;84;21406;-75
2021/07/28 07:10:23;;;;;;;13.72;5.83;;;;;;;39.11;34.02;100922.42;1708713;84;21391;-81
2021/07/28 07:12:50;;;;;;;19.27;6.87;;;;;;;39.26;34.26;100917.48;1709024;84;20941;-79
2021/07/28 07:15:19;;;;;;;24.87;7.42;;;;;;;39.35;32.85;100915.81;1708837;84;21008;-79
2021/07/28 07:17:46;;;;;;;14.98;6.20;;;;;;;39.44;32.06;100910.05;1709110;84;21166;-79
2021/07/28 07:20:14;;;;;;;22.48;6.78;;;;;;;39.53;32.32;100911.67;1708771;84;20929;-78
2021/07/28 07:22:41;;;;;;;18.90;6.72;;;;;;;39.60;31.91;100921.84;1708802;84;20976;-79
2021/07/28 07:25:10;;;;;;;21.50;8.20;;;;;;;39.67;32.47;100927.03;1708695;84;21442;-76
2021/07/28 07:27:40;;;;;;;16.50;7.28;;;;;;;39.79;32.28;100929.70;1708985;84;21525;-76
2021/07/28 07:30:08;;;;;;;15.65;6.37;;;;;;;39.90;32.18;100925.03;1708748;83;21827;-74
2021/07/28 07:32:35;;;;;;;25.75;8.45;;;;;;;40.04;31.93;100927.16;1708974;84;21379;-74
2021/07/28 07:35:02;;;;;;;21.12;6.92;;;;;;;40.16;31.46;100931.78;1708761;84;20901;-74
2021/07/28 07:37:28;;;;;;;14.83;6.83;;;;;;;40.26;31.33;100934.45;1708920;84;20933;-73
2021/07/28 07:39:55;;;;;;;16.48;6.37;;;;;;;40.34;30.78;100938.02;1708680;84;21399;-74
2021/07/28 07:42:22;;;;;;;16.17;7.05;;;;;;;40.35;30.71;100934.71;1709082;84;21116;-76
2021/07/28 07:44:49;;;;;;;19.20;7.95;;;;;;;40.38;30.72;100939.10;1708618;84;21106;-74
2021/07/28 07:47:18;;;;;;;19.57;6.08;;;;;;;40.48;30.02;100938.20;1704726;84;20968;-77
2021/07/28 07:49:45;;;;;;;21.82;7.83;;;;;;;40.55;29.67;100934.57;1700809;83;20957;-75
2021/07/28 07:52:12;;;;;;;16.52;6.22;;;;;;;40.67;29.92;100945.23;1701080;83;20989;-74
2021/07/28 07:54:40;;;;;;;21.20;6.55;;;;;;;40.67;29.82;100946.61;1700927;84;21164;-77
2021/07/28 07:57:07;;;;;;;17.25;6.47;;;;;;;40.57;29.27;100949.42;1700809;83;21059;-76
2021/07/28 08:01:34;;;;;;;26.07;7.75;;;;;;;39.97;29.86;100959.06;1798594;79;22636;-74
2021/07/28 08:04:01;;;;;;;15.85;6.78;;;;;;;39.47;29.55;100953.98;1758610;81;20908;-82
2021/07/28 08:06:30;;;;;;;16.67;6.10;;;;;;;39.01;29.55;100955.37;1758406;81;21127;-78
2021/07/28 08:08:59;;;;;;;20.72;6.80;;;;;;;38.64;30.01;100951.73;1697258;83;20911;-77
2021/07/28 08:11:25;;;;;;;11.95;6.15;;;;;;;38.30;30.66;100954.11;1725774;83;20847;-77
2021/07/28 08:13:52;;;;;;;12.63;5.33;;;;;;;38.13;31.16;100951.58;1725918;83;20895;-71
2021/07/28 08:16:20;;;;;;;13.65;5.85;;;;;;;37.90;31.51;100944.06;1726664;83;21461;-71
2021/07/28 08:18:48;;;;;;;21.57;7.05;;;;;;;37.65;32.19;100943.95;1725493;83;21167;-73
2021/07/28 08:21:15;;;;;;;14.70;6.05;;;;;;;37.46;33.06;100944.34;1724987;83;21381;-74
2021/07/28 08:23:46;;;;;;;18.55;6.03;;;;;;;37.33;33.48;100947.53;1724669;83;20987;-75
2021/07/28 08:26:17;;;;;;;13.25;6.12;;;;;;;37.17;33.55;100941.13;1724805;81;20943;-73
2021/07/28 08:28:47;;;;;;;14.90;6.08;;;;;;;37.04;34.12;100941.54;1724840;81;20967;-73
2021/07/28 08:31:14;;;;;;;16.80;7.33;;;;;;;36.89;34.60;100944.44;1724740;83;21559;-73
2021/07/28 08:33:41;;;;;;;15.63;8.68;;;;;;;36.67;34.95;100947.25;1724684;83;20963;-73
2021/07/28 08:36:08;;;;;;;12.25;6.90;;;;;;;36.38;35.14;100940.36;1724641;81;20943;-72
2021/07/28 08:38:38;;;;;;;15.53;7.45;;;;;;;36.14;36.08;100945.27;1724686;83;20912;-76
2021/07/28 08:41:05;;;;;;;14.78;7.00;;;;;;;35.90;35.91;100939.47;1724837;83;21421;-76
2021/07/28 08:43:35;;;;;;;14.07;6.50;;;;;;;35.70;36.42;100936.48;1724951;83;22124;-72
2021/07/28 08:46:05;;;;;;;10.55;5.85;;;;;;;35.54;36.53;100941.41;1724784;83;20911;-76
2021/07/28 08:48:33;;;;;;;16.85;7.12;;;;;;;35.36;37.39;100938.42;1724857;83;20887;-74
2021/07/28 08:51:02;;;;;;;20.50;6.40;;;;;;;35.23;37.21;100928.67;1724631;83;20974;-73
2021/07/28 08:53:29;;;;;;;15.43;7.03;;;;;;;35.13;37.60;100930.71;1724730;83;20943;-76
2021/07/28 08:55:59;;;;;;;17.20;6.67;;;;;;;35.16;38.19;100923.39;1724747;83;21472;-74
2021/07/28 08:58:30;;;;;;;13.85;6.42;;;;;;;35.29;37.68;100923.05;1720102;81;20891;-74
2021/07/28 09:00:57;;;;;;;17.25;8.50;;;;;;;35.57;36.58;100921.80;1719908;82;20971;-73
2021/07/28 09:03:24;;;;;;;16.55;5.35;;;;;;;35.84;36.24;100910.48;1717018;83;21334;-76
2021/07/28 09:05:52;;;;;;;13.75;6.80;;;;;;;35.96;35.98;100917.17;1717439;83;20931;-79
2021/07/28 09:08:28;;;;;;;14.28;6.40;;;;;;;36.04;35.81;100913.16;1717278;82;21816;-81
2021/07/28 09:11:03;;;;;;;11.28;5.28;;;;;;;35.96;35.57;100906.25;1717367;82;20932;-79
2021/07/28 09:13:37;;;;;;;20.23;6.60;;;;;;;35.78;35.14;100901.94;1716899;82;20903;-83
2021/07/28 09:16:10;;;;;;;8.28;5.12;;;;;;;35.60;34.99;100907.67;1717192;83;21413;-75
2021/07/28 09:18:47;;;;;;;8.78;5.35;;;;;;;35.46;35.14;100909.40;1716988;83;21365;-76
2021/07/28 09:21:24;;;;;;;16.67;5.55;;;;;;;35.55;34.50;100904.86;1717193;83;21098;-76
2021/07/28 09:24:12;;;;;;;8.83;5.60;;;;;;;35.63;34.98;100900.37;1716542;83;20916;-75
2021/07/28 09:26:50;;;;;;;10.70;5.55;;;;;;;35.78;34.64;100892.93;1716460;82;21413;-75
2021/07/28 09:29:27;;;;;;;10.05;5.45;;;;;;;35.87;34.13;100900.41;1716451;83;20947;-76
2021/07/28 09:31:57;;;;;;;19.12;6.75;;;;;;;35.81;34.58;100898.69;1717247;83;20923;-79
2021/07/28 09:34:33;;;;;;;16.90;5.35;;;;;;;35.71;34.85;100898.58;1750153;81;21429;-82
2021/07/28 09:37:15;;;;;;;10.43;5.12;;;;;;;35.60;34.93;100894.03;1752839;82;20991;-83
2021/07/28 09:39:45;;;;;;;15.88;7.35;;;;;;;35.48;34.88;100894.94;1752828;82;20960;-77
2021/07/28 09:42:15;;;;;;;11.90;5.50;;;;;;;35.39;34.83;100893.72;1752793;82;20936;-82
2021/07/28 09:44:45;;;;;;;9.45;4.50;;;;;;;35.35;35.03;100884.93;1752597;82;20916;-77
2021/07/28 09:47:18;;;;;;;9.95;5.65;;;;;;;35.57;34.55;100883.05;1733720;82;20865;-78
2021/07/28 09:49:50;;;;;;;9.57;4.90;;;;;;;35.86;34.00;100879.66;1758782;80;20845;-81
2021/07/28 09:52:29;;;;;;;15.80;5.33;;;;;;;36.24;33.77;100870.27;1752657;82;20936;-77
2021/07/28 09:54:59;;;;;;;11.65;5.92;;;;;;;36.62;32.99;100873.41;1716707;83;21819;-79
2021/07/28 09:57:27;;;;;;;16.45;5.80;;;;;;;37.02;32.75;100867.14;1716828;83;21545;-81
2021/07/28 10:00:03;;;;;;;13.93;5.47;;;;;;;37.38;32.64;100862.77;1716147;82;21184;-82
2021/07/28 10:02:29;;;;;;;19.00;5.45;;;;;;;37.67;32.34;100863.77;1708691;83;21430;-80
2021/07/28 10:04:57;;;;;;;14.58;4.90;;;;;;;37.97;31.84;100863.58;1708852;84;20944;-77
2021/07/28 10:07:24;;;;;;;15.48;7.08;;;;;;;38.27;31.82;100862.31;1708903;84;20985;-77
2021/07/28 10:10:12;;;;;;;10.90;5.60;;;;;;;38.45;31.48;100854.67;1744557;80;20920;-73
2021/07/28 10:12:38;;;;;;;19.15;5.80;;;;;;;38.52;29.52;100856.06;1743896;80;21834;-73
2021/07/28 10:15:12;;;;;;;12.37;5.17;;;;;;;38.39;29.33;100845.61;1744570;81;21336;-74
2021/07/28 10:17:39;;;;;;;12.47;4.97;;;;;;;38.27;29.68;100854.09;1743799;80;20896;-76
2021/07/28 10:20:09;;;;;;;14.50;6.22;;;;;;;38.18;29.91;100859.00;1708758;83;20889;-73
2021/07/28 10:22:37;;;;;;;11.80;4.87;;;;;;;38.02;30.18;100849.92;1744657;80;21000;-74
2021/07/28 10:25:08;;;;;;;15.00;5.53;;;;;;;37.81;30.91;100851.77;1744524;82;21114;-75
2021/07/28 10:27:41;;;;;;;9.35;4.47;;;;;;;37.67;31.21;100847.34;1744693;82;20882;-72
2021/07/28 10:30:13;;;;;;;11.30;4.90;;;;;;;37.44;29.75;100848.55;1744661;81;20940;-73
2021/07/28 10:32:39;;;;;;;14.98;5.28;;;;;;;37.22;29.72;100851.44;1744795;81;20921;-75
2021/07/28 10:35:25;;;;;;;12.90;5.83;;;;;;;37.25;30.22;100846.28;1744629;80;21385;-75
2021/07/28 10:37:58;;;;;;;12.95;6.12;;;;;;;37.19;30.10;100841.05;1744752;82;21135;-75
2021/07/28 10:40:32;;;;;;;11.35;5.03;;;;;;;37.31;30.11;100849.33;1744441;81;21003;-76
2021/07/28 10:43:02;;;;;;;11.73;5.92;;;;;;;37.47;30.18;100843.94;1744626;80;20889;-77
2021/07/28 10:45:59;;;;;;;17.10;5.10;;;;;;;37.71;30.36;100843.80;1744453;82;20932;-75
2021/07/28 10:48:50;;;;;;;10.35;4.78;;;;;;;37.97;28.86;100849.89;1743567;81;21406;-77
2021/07/28 10:51:52;;;;;;;12.13;4.83;;;;;;;38.08;27.78;100846.11;1708537;82;21062;-75
2021/07/28 10:54:21;;;;;;;12.05;5.33;;;;;;;38.04;27.84;100840.37;1708868;84;20979;-75
2021/07/28 10:57:08;;;;;;;17.35;5.15;;;;;;;37.97;27.74;100838.94;1706640;83;20904;-76
2021/07/28 10:59:41;;;;;;;12.93;5.15;;;;;;;37.85;26.85;100837.27;1708779;84;20984;-75
2021/07/28 11:02:09;;;;;;;11.63;5.47;;;;;;;37.63;26.69;100834.72;1755831;81;21529;-75
2021/07/28 11:04:36;;;;;;;9.80;5.85;;;;;;;37.51;26.96;100840.95;1757848;81;21548;-75
2021/07/28 11:07:03;;;;;;;10.98;5.40;;;;;;;37.34;27.39;100837.02;1757799;81;21362;-75
2021/07/28 11:09:30;;;;;;;12.78;6.40;;;;;;;37.15;27.39;100834.45;1758219;81;20936;-78
2021/07/28 11:11:59;;;;;;;13.58;5.87;;;;;;;36.83;27.44;100833.39;1757935;81;20936;-75
2021/07/28 11:14:26;;;;;;;11.93;5.90;;;;;;;36.47;28.32;100830.89;1758674;81;20849;-75
2021/07/28 11:16:54;;;;;;;10.95;5.40;;;;;;;36.25;29.23;100830.41;1758173;80;21954;-76
2021/07/28 11:19:21;;;;;;;15.53;5.28;;;;;;;36.20;29.64;100821.36;1758099;80;20995;-76
2021/07/28 11:21:52;;;;;;;11.05;5.95;;;;;;;36.27;30.12;100817.88;1757795;81;20989;-75
2021/07/28 11:24:20;;;;;;;9.98;5.10;;;;;;;36.42;30.71;100817.17;1758080;81;20932;-75
2021/07/28 11:26:47;;;;;;;10.08;5.00;;;;;;;36.53;30.25;100817.56;1757953;81;21381;-76